Time;durP1;ratioP1;P1;durP2;ratioP2;P2;SDS_P1;SDS_P2;PMS_P1;PMS_P2;Temp;Humidity;BMP_temperature;BMP_pressure;BME280_temperature;BME280_humidity;BME280_pressure;Samples;Min_cycle;Max_cycle;Signal;HPM_P1;HPM_P2
2021/03/27 00:01:48;;;;;;;13.15;11.85;;;;;;;;;;10334713;28;20087;-64
2021/03/27 00:06:47;;;;;;;9.90;8.52;;;;;;;;;;10346261;28;20055;-63
2021/03/27 00:11:46;;;;;;;12.85;11.20;;;;;;;;;;10363222;28;20138;-62
2021/03/27 00:16:50;;;;;;;10.82;9.65;;;;;;;;;;10324589;28;20079;-65
2021/03/27 00:21:50;;;;;;;19.23;17.13;;;;;;;;;;10324693;28;20135;-63
2021/03/27 00:26:54;;;;;;;16.08;11.82;;;;;;;;;;10322754;28;20162;-63
2021/03/27 00:31:59;;;;;;;18.10;16.25;;;;;;;;;;10323692;28;20489;-63
2021/03/27 00:36:58;;;;;;;10.82;8.85;;;;;;;;;;10323513;28;20068;-64
2021/03/27 00:41:57;;;;;;;15.75;14.18;;;;;;;;;;10322804;28;20040;-63
2021/03/27 00:46:56;;;;;;;9.75;8.13;;;;;;;;;;10321317;28;20417;-63
2021/03/27 00:51:55;;;;;;;12.30;10.80;;;;;;;;;;10322874;28;20056;-63
2021/03/27 00:57:00;;;;;;;11.88;8.98;;;;;;;;;;10328467;28;20052;-63
2021/03/27 01:01:58;;;;;;;;;;;;;;;;;;10345495;28;20048;-63
2021/03/27 01:07:15;;;;;;;10.63;7.60;;;;;;;;;;10330584;28;19922;-63
2021/03/27 01:12:32;;;;;;;10.63;8.35;;;;;;;;;;10358248;28;20048;-64
2021/03/27 01:17:32;;;;;;;13.70;8.95;;;;;;;;;;10363531;28;20076;-62
2021/03/27 01:22:31;;;;;;;11.82;9.85;;;;;;;;;;10335783;28;20056;-62
2021/03/27 01:27:30;;;;;;;9.73;6.10;;;;;;;;;;10322057;28;20052;-63
2021/03/27 01:32:31;;;;;;;9.57;7.30;;;;;;;;;;10321678;28;20076;-63
2021/03/27 01:37:33;;;;;;;10.85;6.22;;;;;;;;;;10321690;28;20068;-63
2021/03/27 01:42:36;;;;;;;7.88;6.00;;;;;;;;;;10321678;28;20080;-63
2021/03/27 01:47:37;;;;;;;9.63;6.13;;;;;;;;;;10321218;28;20468;-63
2021/03/27 01:52:40;;;;;;;6.05;5.40;;;;;;;;;;10320506;28;20056;-63
2021/03/27 01:57:40;;;;;;;7.45;5.47;;;;;;;;;;10357600;28;20048;-63
2021/03/27 02:02:40;;;;;;;9.63;6.95;;;;;;;;;;10332756;28;20051;-63
2021/03/27 02:07:49;;;;;;;19.58;10.48;;;;;;;;;;10321044;28;20083;-63
2021/03/27 02:12:52;;;;;;;32.65;15.07;;;;;;;;;;10320638;28;20493;-63
2021/03/27 02:17:51;;;;;;;31.85;16.65;;;;;;;;;;10354685;28;20080;-63
2021/03/27 02:22:58;;;;;;;33.30;16.48;;;;;;;;;;10360967;28;20044;-63
2021/03/27 02:28:01;;;;;;;30.48;14.68;;;;;;;;;;10360920;28;20040;-63
2021/03/27 02:33:13;;;;;;;41.45;17.95;;;;;;;;;;10359667;28;20473;-63
2021/03/27 02:38:18;;;;;;;34.08;17.40;;;;;;;;;;10360493;28;20075;-63
2021/03/27 02:43:21;;;;;;;41.78;18.17;;;;;;;;;;10360901;28;20090;-62
2021/03/27 02:48:20;;;;;;;49.17;21.33;;;;;;;;;;10359507;28;20051;-63
2021/03/27 02:53:22;;;;;;;31.85;15.25;;;;;;;;;;10359516;28;20055;-63
2021/03/27 02:58:20;;;;;;;18.33;11.32;;;;;;;;;;10360244;28;20052;-63
2021/03/27 03:03:21;;;;;;;28.73;13.77;;;;;;;;;;10359771;28;20051;-63
2021/03/27 03:08:21;;;;;;;22.90;12.27;;;;;;;;;;10358309;28;20047;-63
2021/03/27 03:13:22;;;;;;;17.63;10.55;;;;;;;;;;10359220;28;20528;-63
2021/03/27 03:18:28;;;;;;;20.63;13.27;;;;;;;;;;10357995;28;20072;-63
2021/03/27 03:23:29;;;;;;;11.95;9.70;;;;;;;;;;10358208;28;20044;-63
2021/03/27 03:28:30;;;;;;;15.35;12.82;;;;;;;;;;10358904;28;20409;-63
2021/03/27 03:33:34;;;;;;;10.35;8.98;;;;;;;;;;10358711;28;20040;-64
2021/03/27 03:38:40;;;;;;;13.10;8.30;;;;;;;;;;10356741;28;20079;-63
2021/03/27 03:43:41;;;;;;;9.27;7.55;;;;;;;;;;10357661;28;20067;-63
2021/03/27 03:48:43;;;;;;;21.48;14.25;;;;;;;;;;10357802;28;20090;-63
2021/03/27 03:53:44;;;;;;;12.45;10.27;;;;;;;;;;10357203;28;20071;-63
2021/03/27 03:58:50;;;;;;;17.95;14.63;;;;;;;;;;10356150;28;20546;-63
2021/03/27 04:03:51;;;;;;;12.27;9.57;;;;;;;;;;10357901;28;20051;-63
2021/03/27 04:08:53;;;;;;;13.35;9.65;;;;;;;;;;10357883;28;20044;-64
2021/03/27 04:13:51;;;;;;;14.18;12.15;;;;;;;;;;10357075;28;20048;-62
2021/03/27 04:18:56;;;;;;;13.88;10.60;;;;;;;;;;10357616;28;20071;-64
2021/03/27 04:23:57;;;;;;;12.52;9.90;;;;;;;;;;10357357;28;20063;-64
2021/03/27 04:29:11;;;;;;;14.48;12.30;;;;;;;;;;10356206;28;20040;-64
2021/03/27 04:34:11;;;;;;;13.30;10.43;;;;;;;;;;10357354;28;20040;-64
2021/03/27 04:39:12;;;;;;;16.02;14.35;;;;;;;;;;10356259;28;20079;-64
2021/03/27 04:44:17;;;;;;;13.18;9.38;;;;;;;;;;10356265;28;20044;-63
2021/03/27 04:49:19;;;;;;;11.55;9.80;;;;;;;;;;10357181;28;20485;-64
2021/03/27 04:54:31;;;;;;;11.27;8.15;;;;;;;;;;10355501;28;20067;-64
2021/03/27 04:59:37;;;;;;;12.77;11.35;;;;;;;;;;10364662;28;20083;-64
2021/03/27 05:04:43;;;;;;;13.32;9.45;;;;;;;;;;10363508;28;20405;-64
2021/03/27 05:09:42;;;;;;;11.20;9.07;;;;;;;;;;10363792;28;20048;-63
2021/03/27 05:15:00;;;;;;;15.82;14.23;;;;;;;;;;10363499;28;20072;-64
2021/03/27 05:20:00;;;;;;;10.52;8.27;;;;;;;;;;10362897;28;20055;-64
2021/03/27 05:25:15;;;;;;;9.13;7.47;;;;;;;;;;10364013;28;20075;-64
2021/03/27 05:30:20;;;;;;;11.43;7.55;;;;;;;;;;10363861;28;20048;-63
2021/03/27 05:35:25;;;;;;;10.63;7.53;;;;;;;;;;10362497;28;20515;-64
2021/03/27 05:40:43;;;;;;;9.18;7.50;;;;;;;;;;10362425;28;20084;-64
2021/03/27 05:46:04;;;;;;;11.27;6.32;;;;;;;;;;10338648;28;20591;-64
2021/03/27 05:51:19;;;;;;;8.77;6.63;;;;;;;;;;10330882;28;20084;-64
2021/03/27 05:56:37;;;;;;;9.38;8.02;;;;;;;;;;10330522;28;20124;-64
2021/03/27 06:01:39;;;;;;;12.88;8.00;;;;;;;;;;10332625;28;20441;-64
2021/03/27 06:06:43;;;;;;;9.68;8.15;;;;;;;;;;10337480;28;20482;-64
2021/03/27 06:11:43;;;;;;;13.27;9.30;;;;;;;;;;10337605;28;20064;-65
2021/03/27 06:16:56;;;;;;;9.95;7.70;;;;;;;;;;10327775;28;20091;-64
2021/03/27 06:22:01;;;;;;;12.15;9.18;;;;;;;;;;10337300;28;20068;-65
2021/03/27 06:27:16;;;;;;;10.77;7.72;;;;;;;;;;10342947;28;20049;-64
2021/03/27 06:32:31;;;;;;;9.65;8.57;;;;;;;;;;10318092;28;20100;-64
2021/03/27 06:37:46;;;;;;;11.00;8.77;;;;;;;;;;10342469;28;20587;-64
2021/03/27 06:43:04;;;;;;;13.95;8.77;;;;;;;;;;10325053;28;20513;-63
2021/03/27 06:48:20;;;;;;;11.88;9.30;;;;;;;;;;10314455;28;20053;-62
2021/03/27 06:53:22;;;;;;;10.70;8.65;;;;;;;;;;10318264;28;20052;-64
2021/03/27 06:58:44;;;;;;;12.00;8.63;;;;;;;;;;10322197;28;20075;-64
2021/03/27 07:04:06;;;;;;;10.30;7.90;;;;;;;;;;10332540;28;20476;-64
2021/03/27 07:09:18;;;;;;;13.63;9.48;;;;;;;;;;10324376;28;20540;-64
2021/03/27 07:14:48;;;;;;;13.68;10.15;;;;;;;;;;10305329;28;20417;-63
2021/03/27 07:20:06;;;;;;;20.20;11.15;;;;;;;;;;10317471;28;20080;-64
2021/03/27 07:25:23;;;;;;;43.42;12.23;;;;;;;;;;10320795;28;20068;-64
2021/03/27 07:30:30;;;;;;;17.33;12.00;;;;;;;;;;10333301;28;20048;-64
2021/03/27 07:35:35;;;;;;;23.85;12.85;;;;;;;;;;10328136;28;20082;-64
2021/03/27 07:52:25;;;;;;;14.93;12.15;;;;;;;;;;10316840;28;21549;-64
2021/03/27 07:57:42;;;;;;;35.40;23.55;;;;;;;;;;10331430;28;20091;-65
2021/03/27 08:02:50;;;;;;;33.80;21.70;;;;;;;;;;10351934;28;20087;-65
2021/03/27 08:08:04;;;;;;;26.60;16.23;;;;;;;;;;10349459;28;20064;-63
2021/03/27 08:13:20;;;;;;;15.85;12.48;;;;;;;;;;10327346;28;20417;-63
2021/03/27 08:18:37;;;;;;;26.73;17.70;;;;;;;;;;10347449;28;20087;-63
2021/03/27 08:23:49;;;;;;;19.60;12.77;;;;;;;;;;10316251;28;20076;-62
2021/03/27 08:29:01;;;;;;;20.55;11.70;;;;;;;;;;10303142;28;20091;-63
2021/03/27 08:34:16;;;;;;;15.98;11.50;;;;;;;;;;10324482;28;20485;-63
2021/03/27 08:39:34;;;;;;;17.58;12.63;;;;;;;;;;10324910;28;20509;-63
2021/03/27 08:44:49;;;;;;;18.70;12.02;;;;;;;;;;10338959;28;20041;-63
2021/03/27 08:50:18;;;;;;;16.07;10.27;;;;;;;;;;10331268;28;20079;-63
2021/03/27 08:55:36;;;;;;;12.40;10.50;;;;;;;;;;10328169;28;20338;-62
2021/03/27 09:00:50;;;;;;;14.48;10.27;;;;;;;;;;10317855;28;20518;-62
2021/03/27 09:05:56;;;;;;;18.15;11.88;;;;;;;;;;10322580;28;20037;-62
2021/03/27 09:11:12;;;;;;;26.25;14.68;;;;;;;;;;10322962;28;20044;-63
2021/03/27 09:16:25;;;;;;;17.30;11.55;;;;;;;;;;10322721;28;20088;-64
2021/03/27 09:21:29;;;;;;;12.18;7.93;;;;;;;;;;10340990;28;20071;-64
2021/03/27 09:26:50;;;;;;;14.82;9.52;;;;;;;;;;10330675;28;20051;-63
2021/03/27 09:31:54;;;;;;;13.65;9.27;;;;;;;;;;10321865;28;20417;-63
2021/03/27 09:36:56;;;;;;;16.75;12.93;;;;;;;;;;10321635;28;20084;-63
2021/03/27 09:42:08;;;;;;;34.50;19.48;;;;;;;;;;10333579;28;20543;-62
2021/03/27 09:47:12;;;;;;;16.17;9.63;;;;;;;;;;10360187;28;20051;-63
2021/03/27 09:52:25;;;;;;;18.70;11.90;;;;;;;;;;10338911;28;20071;-64
2021/03/27 09:57:45;;;;;;;11.40;9.35;;;;;;;;;;10339459;28;20501;-64
2021/03/27 10:02:46;;;;;;;12.57;9.32;;;;;;;;;;10333620;28;20071;-66
2021/03/27 10:07:51;;;;;;;25.15;16.25;;;;;;;;;;10346374;28;20063;-64
2021/03/27 10:12:55;;;;;;;16.23;10.73;;;;;;;;;;10361686;28;20511;-64
2021/03/27 10:17:55;;;;;;;10.80;9.10;;;;;;;;;;10324177;28;20079;-64
2021/03/27 10:23:00;;;;;;;12.10;8.05;;;;;;;;;;10320266;28;20103;-63
2021/03/27 10:28:04;;;;;;;10.65;7.50;;;;;;;;;;10319865;28;20072;-63
2021/03/27 10:33:08;;;;;;;10.32;7.30;;;;;;;;;;10319556;28;20045;-63
2021/03/27 10:38:10;;;;;;;8.63;7.72;;;;;;;;;;10319454;28;20088;-63
2021/03/27 10:43:21;;;;;;;10.60;7.03;;;;;;;;;;10319062;28;20083;-64
2021/03/27 10:48:39;;;;;;;13.52;10.82;;;;;;;;;;10318358;28;20430;-63
2021/03/27 10:53:46;;;;;;;17.70;13.00;;;;;;;;;;10321550;28;20083;-64
2021/03/27 10:58:57;;;;;;;15.00;10.13;;;;;;;;;;10326709;28;20083;-64
2021/03/27 11:04:21;;;;;;;14.48;11.30;;;;;;;;;;10315959;28;20068;-63
2021/03/27 11:09:49;;;;;;;13.20;9.73;;;;;;;;;;10333380;28;20076;-64
2021/03/27 11:14:54;;;;;;;10.68;8.52;;;;;;;;;;10318310;28;20099;-63
2021/03/27 11:20:09;;;;;;;20.35;13.02;;;;;;;;;;10317155;28;20091;-63
2021/03/27 11:25:37;;;;;;;13.25;9.32;;;;;;;;;;10316268;28;20489;-63
2021/03/27 11:30:38;;;;;;;19.30;12.10;;;;;;;;;;10316950;28;20441;-63
2021/03/27 11:35:37;;;;;;;16.15;10.60;;;;;;;;;;10316929;28;20512;-63
2021/03/27 11:40:39;;;;;;;10.25;8.40;;;;;;;;;;10316394;28;20084;-63
2021/03/27 11:45:40;;;;;;;25.77;15.68;;;;;;;;;;10328213;28;20446;-63
2021/03/27 11:50:42;;;;;;;12.45;8.98;;;;;;;;;;10318442;28;20528;-63
2021/03/27 11:55:47;;;;;;;11.88;9.80;;;;;;;;;;10331033;28;20071;-63
2021/03/27 12:00:50;;;;;;;12.80;8.97;;;;;;;;;;10339607;28;20075;-63
2021/03/27 12:05:51;;;;;;;12.20;8.93;;;;;;;;;;10342553;28;20056;-64
2021/03/27 12:10:56;;;;;;;11.27;7.45;;;;;;;;;;10326522;28;20488;-63
2021/03/27 12:16:02;;;;;;;11.48;7.88;;;;;;;;;;10328248;28;20074;-63
2021/03/27 12:21:03;;;;;;;11.32;7.80;;;;;;;;;;10333438;28;20064;-63
2021/03/27 12:26:09;;;;;;;12.50;8.70;;;;;;;;;;10315916;28;20072;-63
2021/03/27 12:31:11;;;;;;;12.98;9.80;;;;;;;;;;10353384;28;20555;-64
2021/03/27 12:36:11;;;;;;;9.63;8.38;;;;;;;;;;10348690;28;20041;-63
2021/03/27 12:41:12;;;;;;;10.73;8.35;;;;;;;;;;10335996;28;20048;-63
2021/03/27 12:46:17;;;;;;;10.40;6.82;;;;;;;;;;10333188;28;20075;-63
2021/03/27 12:51:14;;;;;;;;;;;;;;;;;;10336090;28;20079;-63
2021/03/27 12:56:26;;;;;;;10.55;8.30;;;;;;;;;;10353044;28;19959;-64
2021/03/27 13:01:30;;;;;;;11.80;7.68;;;;;;;;;;10354894;28;20044;-63
2021/03/27 13:06:37;;;;;;;10.15;7.53;;;;;;;;;;10348279;28;20067;-63
2021/03/27 13:11:38;;;;;;;10.68;7.30;;;;;;;;;;10330281;28;20468;-63
2021/03/27 13:16:41;;;;;;;13.60;8.20;;;;;;;;;;10326228;28;20068;-63
2021/03/27 13:21:56;;;;;;;9.43;6.97;;;;;;;;;;10338145;28;20036;-64
2021/03/27 13:27:05;;;;;;;10.07;8.63;;;;;;;;;;10332414;28;20084;-64
2021/03/27 13:32:08;;;;;;;6.85;6.13;;;;;;;;;;10330475;28;20629;-65
2021/03/27 13:37:11;;;;;;;11.07;7.93;;;;;;;;;;10339869;28;20138;-65
2021/03/27 13:42:29;;;;;;;18.67;11.65;;;;;;;;;;10322854;28;20068;-64
2021/03/27 13:47:41;;;;;;;14.38;10.18;;;;;;;;;;10336935;28;20079;-64
2021/03/27 13:52:45;;;;;;;16.77;11.02;;;;;;;;;;10344836;28;20079;-64
2021/03/27 13:57:47;;;;;;;21.45;14.82;;;;;;;;;;10321127;28;20083;-63
2021/03/27 14:02:54;;;;;;;15.85;9.82;;;;;;;;;;10323322;28;20072;-63
2021/03/27 14:07:54;;;;;;;10.55;7.60;;;;;;;;;;10327013;28;20095;-63
2021/03/27 14:12:56;;;;;;;19.83;14.23;;;;;;;;;;10320797;28;20047;-64
2021/03/27 14:18:07;;;;;;;20.58;14.93;;;;;;;;;;10336639;28;20075;-65
2021/03/27 14:23:20;;;;;;;16.20;10.90;;;;;;;;;;10336481;28;20079;-64
2021/03/27 14:28:21;;;;;;;18.00;12.00;;;;;;;;;;10349256;28;20048;-65
2021/03/27 14:33:24;;;;;;;12.48;8.80;;;;;;;;;;10334056;28;20056;-63
2021/03/27 14:38:26;;;;;;;14.52;10.77;;;;;;;;;;10329754;28;20075;-64
2021/03/27 14:43:43;;;;;;;9.00;8.07;;;;;;;;;;10338667;28;20453;-62
2021/03/27 14:48:41;;;;;;;;;;;;;;;;;;10327116;28;20076;-63
2021/03/27 14:53:45;;;;;;;22.63;18.05;;;;;;;;;;10324460;28;19955;-63
2021/03/27 14:58:44;;;;;;;11.60;9.82;;;;;;;;;;10331811;28;20071;-64
2021/03/27 15:03:45;;;;;;;15.95;11.98;;;;;;;;;;10336490;28;20040;-62
2021/03/27 15:08:45;;;;;;;14.55;10.43;;;;;;;;;;10327790;28;20083;-64
2021/03/27 15:13:46;;;;;;;22.48;14.90;;;;;;;;;;10326317;28;20588;-65
2021/03/27 15:18:47;;;;;;;25.50;16.42;;;;;;;;;;10332965;28;20095;-66
2021/03/27 15:23:49;;;;;;;19.65;13.65;;;;;;;;;;10356240;28;20048;-66
2021/03/27 15:28:49;;;;;;;11.98;9.30;;;;;;;;;;10357906;28;20037;-65
2021/03/27 15:33:53;;;;;;;29.95;19.02;;;;;;;;;;10358704;28;20075;-66
2021/03/27 15:39:04;;;;;;;42.33;27.67;;;;;;;;;;10353979;28;20080;-67
2021/03/27 15:44:05;;;;;;;17.98;11.90;;;;;;;;;;10349647;28;20036;-67
2021/03/27 15:49:20;;;;;;;67.82;42.35;;;;;;;;;;10356452;28;20044;-67
2021/03/27 15:54:27;;;;;;;29.60;18.25;;;;;;;;;;10316486;28;20049;-66
2021/03/27 15:59:37;;;;;;;23.80;14.80;;;;;;;;;;10317002;28;20489;-67
2021/03/27 16:04:40;;;;;;;23.15;17.42;;;;;;;;;;10317043;28;20072;-66
2021/03/27 16:09:42;;;;;;;39.67;29.63;;;;;;;;;;10312155;28;20458;-67
2021/03/27 16:15:00;;;;;;;50.60;31.20;;;;;;;;;;10316608;28;20051;-67
2021/03/27 16:20:02;;;;;;;97.43;59.50;;;;;;;;;;10347938;28;20079;-66
2021/03/27 16:25:16;;;;;;;168.32;95.45;;;;;;;;;;10357950;28;20150;-67
2021/03/27 16:30:16;;;;;;;149.10;81.55;;;;;;;;;;10357825;28;20044;-66
2021/03/27 16:35:15;;;;;;;111.22;62.05;;;;;;;;;;10357728;28;20055;-67
2021/03/27 16:40:20;;;;;;;96.50;56.08;;;;;;;;;;10349191;28;20076;-66
2021/03/27 16:45:21;;;;;;;101.57;60.63;;;;;;;;;;10313225;28;20041;-66
2021/03/27 16:50:37;;;;;;;78.45;50.38;;;;;;;;;;10317219;28;20041;-67
2021/03/27 16:55:34;;;;;;;;;;;;;;;;;;10344301;28;20082;-66
2021/03/27 17:00:40;;;;;;;108.65;78.00;;;;;;;;;;10353700;28;19966;-66
2021/03/27 17:05:45;;;;;;;79.32;55.70;;;;;;;;;;10342594;28;20143;-64
2021/03/27 17:10:45;;;;;;;80.03;51.90;;;;;;;;;;10340792;28;20089;-65
2021/03/27 17:15:56;;;;;;;274.60;202.15;;;;;;;;;;10334627;28;20048;-63
2021/03/27 17:21:05;;;;;;;75.00;52.28;;;;;;;;;;10321887;28;20076;-64
2021/03/27 17:26:37;;;;;;;117.78;79.50;;;;;;;;;;10325564;28;20150;-65
2021/03/27 17:31:45;;;;;;;208.23;122.45;;;;;;;;;;10320338;28;20053;-66
2021/03/27 17:36:50;;;;;;;119.95;68.65;;;;;;;;;;10321130;28;20059;-63
2021/03/27 17:42:02;;;;;;;117.38;74.47;;;;;;;;;;10337835;28;20535;-65
2021/03/27 17:47:02;;;;;;;98.65;61.85;;;;;;;;;;10334874;28;20084;-61
2021/03/27 17:52:03;;;;;;;144.10;91.18;;;;;;;;;;10320375;28;20054;-61
2021/03/27 17:57:04;;;;;;;198.35;117.35;;;;;;;;;;10330124;28;20049;-60
2021/03/27 18:02:06;;;;;;;108.68;76.20;;;;;;;;;;10324289;28;20072;-61
2021/03/27 18:07:16;;;;;;;126.05;87.28;;;;;;;;;;10326324;28;20068;-60
2021/03/27 18:12:22;;;;;;;98.93;67.22;;;;;;;;;;10322356;28;20087;-61
2021/03/27 18:17:26;;;;;;;155.27;95.82;;;;;;;;;;10316699;28;20079;-61
2021/03/27 18:22:26;;;;;;;133.70;80.53;;;;;;;;;;10316928;28;20546;-61
2021/03/27 18:27:25;;;;;;;87.00;57.28;;;;;;;;;;10333670;28;20076;-60
2021/03/27 18:32:28;;;;;;;86.78;54.72;;;;;;;;;;10341031;28;20041;-61
2021/03/27 18:37:35;;;;;;;73.35;47.63;;;;;;;;;;10318912;28;20047;-62
2021/03/27 18:42:40;;;;;;;38.17;29.85;;;;;;;;;;10332089;28;20063;-61
2021/03/27 18:47:40;;;;;;;19.75;16.33;;;;;;;;;;10314989;28;20075;-61
2021/03/27 18:52:39;;;;;;;16.33;13.13;;;;;;;;;;10327436;28;20076;-60
2021/03/27 18:57:39;;;;;;;75.00;50.25;;;;;;;;;;10317261;28;20052;-60
2021/03/27 19:02:38;;;;;;;34.30;23.08;;;;;;;;;;10330846;28;20075;-62
2021/03/27 19:07:40;;;;;;;33.47;21.00;;;;;;;;;;10332517;28;20055;-61
2021/03/27 19:12:40;;;;;;;44.25;31.77;;;;;;;;;;10353258;28;20075;-62
2021/03/27 19:17:39;;;;;;;22.45;14.77;;;;;;;;;;10329542;28;20460;-61
2021/03/27 19:22:44;;;;;;;17.60;11.43;;;;;;;;;;10331280;28;20071;-61
2021/03/27 19:27:46;;;;;;;33.30;16.15;;;;;;;;;;10328058;28;20473;-61
2021/03/27 19:32:44;;;;;;;37.33;18.20;;;;;;;;;;10321646;28;20090;-61
2021/03/27 19:37:45;;;;;;;48.80;25.40;;;;;;;;;;10332793;28;20067;-62
2021/03/27 19:42:46;;;;;;;67.28;34.47;;;;;;;;;;10330143;28;20467;-62
2021/03/27 19:47:45;;;;;;;98.47;48.70;;;;;;;;;;10357278;28;20424;-62
2021/03/27 19:52:45;;;;;;;163.30;90.75;;;;;;;;;;10333811;28;20060;-62
2021/03/27 19:57:54;;;;;;;54.78;33.38;;;;;;;;;;10343706;28;20461;-62
2021/03/27 20:02:53;;;;;;;28.58;19.98;;;;;;;;;;10320025;28;20083;-60
2021/03/27 20:07:52;;;;;;;29.67;20.90;;;;;;;;;;10332144;28;20523;-61
2021/03/27 20:12:52;;;;;;;32.70;21.30;;;;;;;;;;10347934;28;20048;-62
2021/03/27 20:17:54;;;;;;;27.55;17.02;;;;;;;;;;10316862;28;20076;-61
2021/03/27 20:22:54;;;;;;;25.73;15.23;;;;;;;;;;10313195;28;20271;-61
2021/03/27 20:27:54;;;;;;;21.63;14.05;;;;;;;;;;10338725;28;20071;-61
2021/03/27 20:32:55;;;;;;;18.92;13.02;;;;;;;;;;10324937;28;20076;-61
2021/03/27 20:37:57;;;;;;;62.50;37.78;;;;;;;;;;10320502;28;20075;-61
2021/03/27 20:43:05;;;;;;;24.70;21.33;;;;;;;;;;10323282;28;20455;-61
2021/03/27 20:48:16;;;;;;;21.92;13.45;;;;;;;;;;10323928;28;20087;-62
2021/03/27 20:53:20;;;;;;;20.10;14.93;;;;;;;;;;10323166;28;20067;-61
2021/03/27 20:58:35;;;;;;;19.38;12.65;;;;;;;;;;10322114;28;20088;-61
2021/03/27 21:03:37;;;;;;;19.85;12.45;;;;;;;;;;10329590;28;20080;-61
2021/03/27 21:08:43;;;;;;;16.80;12.82;;;;;;;;;;10339007;28;20091;-62
2021/03/27 21:13:56;;;;;;;18.58;10.68;;;;;;;;;;10341514;28;20071;-62
2021/03/27 21:18:58;;;;;;;17.77;11.68;;;;;;;;;;10340512;28;20083;-62
2021/03/27 21:23:58;;;;;;;19.40;12.40;;;;;;;;;;10322639;28;20059;-62
2021/03/27 21:29:28;;;;;;;32.33;22.02;;;;;;;;;;10322092;28;20064;-62
2021/03/27 21:34:31;;;;;;;16.05;12.35;;;;;;;;;;10319958;28;20056;-62
2021/03/27 21:39:43;;;;;;;17.60;11.63;;;;;;;;;;10320900;28;20076;-62
2021/03/27 21:44:56;;;;;;;15.57;10.77;;;;;;;;;;10319789;28;20094;-62
2021/03/27 21:50:01;;;;;;;12.02;7.95;;;;;;;;;;10321331;28;20120;-61
2021/03/27 21:55:03;;;;;;;14.95;8.98;;;;;;;;;;10345287;28;20091;-61
2021/03/27 22:00:10;;;;;;;12.70;9.07;;;;;;;;;;10352533;28;20125;-63
2021/03/27 22:05:11;;;;;;;10.88;7.72;;;;;;;;;;10329891;28;20047;-62
2021/03/27 22:10:19;;;;;;;14.40;9.07;;;;;;;;;;10320886;28;20079;-63
2021/03/27 22:15:19;;;;;;;9.93;7.60;;;;;;;;;;10320816;28;20520;-62
2021/03/27 22:20:30;;;;;;;12.50;8.55;;;;;;;;;;10321802;28;20469;-61
2021/03/27 22:25:29;;;;;;;14.43;8.02;;;;;;;;;;10324365;28;20087;-62
2021/03/27 22:30:30;;;;;;;11.95;8.05;;;;;;;;;;10353429;28;20040;-63
2021/03/27 22:35:32;;;;;;;8.60;7.05;;;;;;;;;;10325585;28;20057;-63
2021/03/27 22:40:33;;;;;;;8.55;6.53;;;;;;;;;;10343973;28;20106;-62
2021/03/27 22:45:32;;;;;;;12.65;6.93;;;;;;;;;;10360641;28;20086;-62
2021/03/27 22:50:33;;;;;;;9.25;7.03;;;;;;;;;;10360089;28;20093;-63
2021/03/27 22:55:32;;;;;;;11.77;8.00;;;;;;;;;;10353522;28;20075;-63
2021/03/27 23:00:34;;;;;;;10.95;7.13;;;;;;;;;;10317265;28;20059;-62
2021/03/27 23:05:33;;;;;;;9.43;6.97;;;;;;;;;;10345354;28;20044;-62
2021/03/27 23:10:34;;;;;;;8.85;6.93;;;;;;;;;;10318505;28;20060;-62
2021/03/27 23:15:49;;;;;;;12.68;6.80;;;;;;;;;;10337192;28;20049;-60
2021/03/27 23:20:47;;;;;;;;;;;;;;;;;;10342075;28;20082;-61
2021/03/27 23:25:46;;;;;;;11.38;7.75;;;;;;;;;;10352058;28;19931;-60
2021/03/27 23:30:58;;;;;;;9.60;6.78;;;;;;;;;;10317754;28;20044;-61
2021/03/27 23:36:02;;;;;;;8.57;7.03;;;;;;;;;;10317768;28;20091;-61
2021/03/27 23:41:07;;;;;;;7.72;6.90;;;;;;;;;;10317638;28;20083;-62
2021/03/27 23:46:12;;;;;;;8.32;6.15;;;;;;;;;;10321865;28;20083;-63
2021/03/27 23:51:14;;;;;;;9.98;6.90;;;;;;;;;;10338001;28;20413;-60
2021/03/27 23:56:15;;;;;;;8.55;6.97;;;;;;;;;;10333495;28;20051;-61
